createdAt,value
2023-01-12T00:01:53.819Z,101711.20
2023-01-12T00:04:20.604Z,101716.83
2023-01-12T00:06:48.423Z,101714.90
2023-01-12T00:09:15.285Z,101713.67
2023-01-12T00:11:42.023Z,101719.27
2023-01-12T00:14:09.027Z,101720.52
2023-01-12T00:16:38.061Z,101719.44
2023-01-12T00:19:18.782Z,101721.39
2023-01-12T00:22:11.157Z,101726.55
2023-01-12T00:24:42.442Z,101731.88
2023-01-12T00:27:11.308Z,101726.75
2023-01-12T00:29:38.105Z,101726.05
2023-01-12T00:32:05.774Z,101730.82
2023-01-12T00:34:32.579Z,101728.11
2023-01-12T00:37:02.578Z,101729.83
2023-01-12T00:39:29.290Z,101728.10
2023-01-12T00:42:14.937Z,101724.92
2023-01-12T00:45:00.578Z,101720.77
2023-01-12T00:47:27.315Z,101719.17
2023-01-12T00:49:54.076Z,101719.06
2023-01-12T00:52:30.419Z,101720.89
2023-01-12T00:54:58.774Z,101724.90
2023-01-12T00:57:25.629Z,101723.05
2023-01-12T00:59:55.493Z,101725.41
2023-01-12T01:02:22.968Z,101725.42
2023-01-12T01:04:50.229Z,101723.21
2023-01-12T01:07:17.353Z,101720.32
2023-01-12T01:09:44.330Z,101717.58
2023-01-12T01:12:11.092Z,101719.38
2023-01-12T01:14:37.816Z,101720.77
2023-01-12T01:17:04.551Z,101725.67
2023-01-12T01:19:31.295Z,101726.73
2023-01-12T01:21:58.039Z,101725.21
2023-01-12T01:24:24.830Z,101727.10
2023-01-12T01:26:51.627Z,101736.63
2023-01-12T01:29:18.500Z,101736.42
2023-01-12T01:31:47.709Z,101743.54
2023-01-12T01:34:14.888Z,101744.48
2023-01-12T01:36:41.591Z,101747.27
2023-01-12T01:39:08.378Z,101755.72
2023-01-12T01:41:35.074Z,101755.56
2023-01-12T01:44:03.850Z,101753.02
2023-01-12T01:46:46.186Z,101756.86
2023-01-12T01:49:33.293Z,101757.30
2023-01-12T01:52:03.263Z,101761.38
2023-01-12T01:54:31.069Z,101761.26
2023-01-12T01:56:57.930Z,101761.98
2023-01-12T01:59:27.136Z,101765.50
2023-01-12T02:01:53.932Z,101769.22
2023-01-12T02:04:20.654Z,101761.91
2023-01-12T02:06:48.450Z,101768.48
2023-01-12T02:09:18.514Z,101764.98
2023-01-12T02:12:05.057Z,101762.45
2023-01-12T02:14:52.221Z,101764.42
2023-01-12T02:17:22.202Z,101763.40
2023-01-12T02:19:58.104Z,101763.05
2023-01-12T02:22:58.796Z,101760.48
2023-01-12T02:25:43.840Z,101761.69
2023-01-12T02:28:19.757Z,101754.73
2023-01-12T02:30:58.491Z,101754.36
2023-01-12T02:34:03.603Z,101756.79
2023-01-12T02:36:55.399Z,101745.71
2023-01-12T02:39:28.005Z,101741.44
2023-01-12T02:42:16.312Z,101745.55
2023-01-12T02:44:53.164Z,101741.22
2023-01-12T02:47:28.022Z,101739.44
2023-01-12T02:49:55.630Z,101743.05
2023-01-12T02:52:24.052Z,101738.45
2023-01-12T02:54:50.786Z,101737.36
2023-01-12T02:57:17.519Z,101735.61
2023-01-12T02:59:45.658Z,101732.45
2023-01-12T03:02:14.035Z,101732.83
2023-01-12T03:04:42.047Z,101725.52
2023-01-12T03:07:12.584Z,101728.75
2023-01-12T03:09:51.156Z,101734.70
2023-01-12T03:12:33.135Z,101732.73
2023-01-12T03:15:00.815Z,101723.09
2023-01-12T03:17:37.069Z,101721.95
2023-01-12T03:20:07.613Z,101715.92
2023-01-12T03:22:36.300Z,101714.48
2023-01-12T03:25:09.296Z,101713.31
2023-01-12T03:27:40.091Z,101709.02
2023-01-12T03:30:15.238Z,101704.27
2023-01-12T03:32:41.940Z,101700.52
2023-01-12T03:35:09.338Z,101693.95
2023-01-12T03:37:54.405Z,101694.98
2023-01-12T03:40:39.782Z,101692.60
2023-01-12T03:43:15.217Z,101687.94
2023-01-12T03:45:52.976Z,101686.93
2023-01-12T03:48:41.773Z,101682.08
2023-01-12T03:51:19.248Z,101688.90
2023-01-12T03:53:49.191Z,101688.91
2023-01-12T03:56:16.657Z,101685.35
2023-01-12T03:58:43.697Z,101685.66
2023-01-12T04:01:10.452Z,101680.52
2023-01-12T04:03:37.271Z,101679.79
2023-01-12T04:06:04.119Z,101683.58
2023-01-12T04:08:31.696Z,101683.52
2023-01-12T04:10:58.505Z,101678.15
2023-01-12T04:13:25.377Z,101675.84
2023-01-12T04:15:52.123Z,101682.33
2023-01-12T04:18:18.833Z,101679.84
2023-01-12T04:20:46.918Z,101677.48
2023-01-12T04:23:13.606Z,101669.85
2023-01-12T04:25:40.371Z,101662.20
2023-01-12T04:28:07.219Z,101661.70
2023-01-12T04:30:34.262Z,101655.74
2023-01-12T04:33:01.185Z,101652.16
2023-01-12T04:35:27.926Z,101645.25
2023-01-12T04:37:54.876Z,101636.83
2023-01-12T04:40:21.698Z,101636.64
2023-01-12T04:43:02.217Z,101633.48
2023-01-12T04:45:31.005Z,101634.77
2023-01-12T04:48:05.666Z,101634.30
2023-01-12T04:50:32.425Z,101636.66
2023-01-12T04:53:01.894Z,101635.70
2023-01-12T04:55:28.987Z,101632.50
2023-01-12T04:57:56.614Z,101636.38
2023-01-12T05:00:23.529Z,101628.77
2023-01-12T05:02:50.343Z,101627.78
2023-01-12T05:05:17.025Z,101627.05
2023-01-12T05:08:03.686Z,101629.33
2023-01-12T05:10:30.481Z,101631.33
2023-01-12T05:12:57.343Z,101627.04
2023-01-12T05:15:24.115Z,101631.68
2023-01-12T05:17:50.890Z,101635.91
2023-01-12T05:20:17.720Z,101637.56
2023-01-12T05:22:44.446Z,101639.41
2023-01-12T05:25:11.137Z,101641.54
2023-01-12T05:27:37.829Z,101642.63
2023-01-12T05:30:05.004Z,101640.09
2023-01-12T05:32:38.913Z,101635.37
2023-01-12T05:35:06.557Z,101629.57
2023-01-12T05:37:33.277Z,101634.91
2023-01-12T05:40:00.044Z,101635.68
2023-01-12T05:42:45.446Z,101633.00
2023-01-12T05:45:12.161Z,101629.39
2023-01-12T05:47:38.862Z,101633.77
2023-01-12T05:50:06.006Z,101632.51
2023-01-12T05:52:32.696Z,101631.48
2023-01-12T05:54:59.461Z,101632.90
2023-01-12T05:57:26.173Z,101630.06
2023-01-12T05:59:52.861Z,101627.80
2023-01-12T06:02:21.652Z,101630.95
2023-01-12T06:04:48.617Z,101638.05
2023-01-12T06:07:15.887Z,101638.95
2023-01-12T06:09:42.717Z,101637.81
2023-01-12T06:12:32.146Z,101638.33
2023-01-12T06:14:58.931Z,101637.05
2023-01-12T06:17:25.660Z,101636.83
2023-01-12T06:19:53.364Z,101632.45
2023-01-12T06:22:20.074Z,101637.36
2023-01-12T06:24:49.211Z,101634.23
2023-01-12T06:27:16.601Z,101632.38
2023-01-12T06:29:43.403Z,101629.46
2023-01-12T06:32:10.294Z,101624.38
2023-01-12T06:34:37.546Z,101625.98
2023-01-12T06:37:04.880Z,101622.65
2023-01-12T06:39:31.635Z,101619.69
2023-01-12T06:42:17.145Z,101619.29
2023-01-12T06:44:43.826Z,101622.50
2023-01-12T06:47:10.524Z,101623.20
2023-01-12T06:49:37.214Z,101625.99
2023-01-12T06:52:04.074Z,101623.44
2023-01-12T06:54:31.017Z,101626.04
2023-01-12T06:56:57.765Z,101627.11
2023-01-12T06:59:24.511Z,101632.02
2023-01-12T07:01:51.458Z,101635.44
2023-01-12T07:04:18.358Z,101634.77
2023-01-12T07:06:45.684Z,101636.92
2023-01-12T07:09:12.370Z,101644.61
2023-01-12T07:11:39.111Z,101642.03
2023-01-12T07:14:08.370Z,101649.69
2023-01-12T07:16:36.079Z,101653.95
2023-01-12T07:19:02.861Z,101652.17
2023-01-12T07:21:29.572Z,101650.93
2023-01-12T07:23:56.323Z,101647.77
2023-01-12T07:26:23.028Z,101643.64
2023-01-12T07:28:49.790Z,101636.88
2023-01-12T07:31:16.650Z,101627.36
2023-01-12T07:33:43.379Z,101631.20
2023-01-12T07:36:10.169Z,101627.13
2023-01-12T07:38:38.263Z,101632.95
2023-01-12T07:41:05.061Z,101631.56
2023-01-12T07:43:33.651Z,101628.19
2023-01-12T07:46:00.574Z,101630.50
2023-01-12T07:48:27.630Z,101630.05
2023-01-12T07:50:54.584Z,101630.20
2023-01-12T07:53:21.319Z,101627.90
2023-01-12T07:55:48.065Z,101629.98
2023-01-12T07:58:14.773Z,101622.17
2023-01-12T08:00:41.884Z,101625.10
2023-01-12T08:03:10.437Z,101628.98
2023-01-12T08:05:37.526Z,101623.70
2023-01-12T08:08:04.956Z,101625.27
2023-01-12T08:10:31.763Z,101625.70
2023-01-12T08:12:58.553Z,101630.36
2023-01-12T08:15:25.525Z,101627.99
2023-01-12T08:17:58.859Z,101631.00
2023-01-12T08:20:32.252Z,101629.80
2023-01-12T08:23:01.167Z,101631.62
2023-01-12T08:25:31.609Z,101631.55
2023-01-12T08:28:00.458Z,101626.59
2023-01-12T08:30:27.274Z,101624.23
2023-01-12T08:32:56.078Z,101619.30
2023-01-12T08:35:23.038Z,101618.71
2023-01-12T08:37:49.805Z,101619.13
2023-01-12T08:40:16.548Z,101618.34
2023-01-12T08:42:43.537Z,101611.48
2023-01-12T08:45:10.755Z,101608.42
2023-01-12T08:47:38.011Z,101606.54
2023-01-12T08:50:05.156Z,101600.20
2023-01-12T08:52:33.023Z,101603.63
2023-01-12T08:55:00.289Z,101590.39
2023-01-12T08:57:27.124Z,101586.87
2023-01-12T08:59:53.813Z,101583.70
2023-01-12T09:02:20.684Z,101586.92
2023-01-12T09:04:47.510Z,101589.52
2023-01-12T09:07:14.345Z,101591.05
2023-01-12T09:09:41.087Z,101589.20
2023-01-12T09:12:07.825Z,101588.75
2023-01-12T09:14:38.781Z,101582.09
2023-01-12T09:17:07.067Z,101589.01
2023-01-12T09:19:34.211Z,101586.46
2023-01-12T09:22:00.917Z,101591.77
2023-01-12T09:24:27.693Z,101587.19
2023-01-12T09:26:54.476Z,101588.29
2023-01-12T09:29:21.235Z,101591.27
2023-01-12T09:31:48.017Z,101595.89
2023-01-12T09:34:14.842Z,101590.02
2023-01-12T09:36:42.086Z,101583.89
2023-01-12T09:39:10.385Z,101590.46
2023-01-12T09:42:00.399Z,101586.71
2023-01-12T09:44:58.704Z,101588.23
2023-01-12T09:47:48.402Z,101590.67
2023-01-12T09:50:20.443Z,101595.27
2023-01-12T09:52:50.800Z,101593.65
2023-01-12T09:55:19.625Z,101595.23
2023-01-12T09:57:55.611Z,101596.70
2023-01-12T10:00:22.451Z,101597.97
2023-01-12T10:02:52.817Z,101593.92
2023-01-12T10:05:38.871Z,101597.70
2023-01-12T10:08:06.139Z,101600.27
2023-01-12T10:10:32.823Z,101602.27
2023-01-12T10:13:01.507Z,101602.27
2023-01-12T10:15:43.874Z,101600.79
2023-01-12T10:18:34.570Z,101596.41
2023-01-12T10:21:01.302Z,101584.33
2023-01-12T10:23:28.049Z,101578.09
2023-01-12T10:26:21.794Z,101579.17
2023-01-12T10:28:48.882Z,101569.42
2023-01-12T10:31:19.276Z,101568.65
2023-01-12T10:34:07.144Z,101563.64
2023-01-12T10:36:42.004Z,101555.42
2023-01-12T10:39:33.248Z,101556.48
2023-01-12T10:42:34.811Z,101553.05
2023-01-12T10:45:21.686Z,101559.32
2023-01-12T10:47:49.526Z,101566.77
2023-01-12T10:50:28.127Z,101563.30
2023-01-12T10:53:06.125Z,101559.98
2023-01-12T10:55:34.971Z,101561.57
2023-01-12T10:58:01.748Z,101556.83
2023-01-12T11:00:28.548Z,101555.98
2023-01-12T11:02:55.521Z,101555.20
2023-01-12T11:05:38.984Z,101554.76
2023-01-12T11:08:27.551Z,101549.66
2023-01-12T11:10:54.235Z,101550.84
2023-01-12T11:13:26.627Z,101557.23
2023-01-12T11:16:02.152Z,101549.57
2023-01-12T11:18:52.707Z,101550.50
2023-01-12T11:21:22.000Z,101552.06
2023-01-12T11:24:07.710Z,101548.30
2023-01-12T11:26:43.319Z,101546.89
2023-01-12T11:29:39.727Z,101550.83
2023-01-12T11:32:36.444Z,101541.35
2023-01-12T11:35:30.254Z,101538.32
2023-01-12T11:38:00.024Z,101535.64
2023-01-12T11:40:31.199Z,101535.00
2023-01-12T11:43:24.047Z,101526.46
2023-01-12T11:45:55.174Z,101523.98
2023-01-12T11:49:03.999Z,101526.46
2023-01-12T11:51:30.819Z,101528.89
2023-01-12T11:53:57.547Z,101521.73
2023-01-12T11:56:42.258Z,101516.73
2023-01-12T11:59:36.515Z,101508.29
2023-01-12T12:02:37.566Z,101510.52
2023-01-12T12:05:22.889Z,101507.92
2023-01-12T12:07:55.674Z,101509.72
2023-01-12T12:10:23.845Z,101511.48
2023-01-12T12:13:19.630Z,101507.27
2023-01-12T12:15:58.417Z,101504.79
2023-01-12T12:18:36.734Z,101496.34
2023-01-12T12:21:13.380Z,101494.84
2023-01-12T12:23:58.523Z,101494.06
2023-01-12T12:26:35.247Z,101494.94
2023-01-12T12:29:46.992Z,101491.11
2023-01-12T12:32:59.045Z,101492.96
2023-01-12T12:35:35.426Z,101494.52
2023-01-12T12:38:30.065Z,101495.00
2023-01-12T12:41:54.975Z,101494.92
2023-01-12T12:44:43.178Z,101494.33
2023-01-12T12:47:36.497Z,101486.52
2023-01-12T12:50:04.080Z,101481.33
2023-01-12T12:52:36.773Z,101481.90
2023-01-12T12:55:03.834Z,101487.46
2023-01-12T12:57:30.577Z,101487.00
2023-01-12T13:00:03.737Z,101486.14
2023-01-12T13:02:41.133Z,101484.13
2023-01-12T13:05:10.547Z,101484.40
2023-01-12T13:07:44.646Z,101489.60
2023-01-12T13:10:21.264Z,101488.79
2023-01-12T13:12:56.525Z,101489.75
2023-01-12T13:15:24.440Z,101498.44
2023-01-12T13:17:52.941Z,101490.42
2023-01-12T13:20:25.824Z,101488.89
2023-01-12T13:22:53.266Z,101490.10
2023-01-12T13:25:20.761Z,101487.36
2023-01-12T13:28:00.539Z,101485.92
2023-01-12T13:30:30.458Z,101490.77
2023-01-12T13:33:15.717Z,101492.01
2023-01-12T13:35:46.371Z,101485.64
2023-01-12T13:38:22.788Z,101488.19
2023-01-12T13:40:56.140Z,101486.72
2023-01-12T13:43:29.381Z,101485.40
2023-01-12T13:46:04.553Z,101488.61
2023-01-12T13:48:34.140Z,101499.67
2023-01-12T13:51:25.555Z,101509.42
2023-01-12T13:53:59.890Z,101509.48
2023-01-12T13:56:26.860Z,101515.14
2023-01-12T13:59:02.073Z,101511.90
2023-01-12T14:01:48.001Z,101511.28
2023-01-12T14:04:20.328Z,101511.51
2023-01-12T14:07:06.393Z,101510.33
2023-01-12T14:10:01.687Z,101510.66
2023-01-12T14:13:00.056Z,101511.66
2023-01-12T14:15:58.356Z,101511.00
2023-01-12T14:18:27.048Z,101513.05
2023-01-12T14:20:58.172Z,101511.06
2023-01-12T14:23:30.181Z,101516.95
2023-01-12T14:26:09.398Z,101512.61
2023-01-12T14:28:36.923Z,101504.55
2023-01-12T14:31:05.161Z,101497.67
2023-01-12T14:33:33.742Z,101497.29
2023-01-12T14:36:12.498Z,101498.96
2023-01-12T14:38:42.542Z,101502.73
2023-01-12T14:41:31.120Z,101505.91
2023-01-12T14:44:16.686Z,101503.86
2023-01-12T14:46:51.927Z,101508.10
2023-01-12T14:49:32.124Z,101505.55
2023-01-12T14:52:00.385Z,101511.23
2023-01-12T14:54:32.135Z,101513.88
2023-01-12T14:57:07.476Z,101512.17
2023-01-12T14:59:35.938Z,101514.06
2023-01-12T15:02:15.076Z,101516.27
2023-01-12T15:05:00.796Z,101523.61
2023-01-12T15:07:34.903Z,101525.48
2023-01-12T15:10:21.453Z,101525.64
2023-01-12T15:12:54.088Z,101524.41
2023-01-12T15:15:23.080Z,101524.78
2023-01-12T15:18:10.252Z,101525.50
2023-01-12T15:20:57.790Z,101526.26
2023-01-12T15:23:46.759Z,101527.84
2023-01-12T15:26:13.648Z,101531.21
2023-01-12T15:28:41.173Z,101530.80
2023-01-12T15:31:23.579Z,101526.05
2023-01-12T15:33:50.331Z,101522.95
2023-01-12T15:36:17.175Z,101525.02
2023-01-12T15:38:43.909Z,101530.98
2023-01-12T15:41:19.358Z,101535.94
2023-01-12T15:43:46.265Z,101530.83
2023-01-12T15:46:20.184Z,101523.38
2023-01-12T15:48:46.974Z,101520.05
2023-01-12T15:51:14.714Z,101518.17
2023-01-12T15:53:41.589Z,101517.32
2023-01-12T15:56:11.498Z,101521.10
2023-01-12T15:58:38.200Z,101523.20
2023-01-12T16:01:07.086Z,101527.06
2023-01-12T16:04:00.607Z,101526.48
2023-01-12T16:06:20.768Z,101525.66
2023-01-12T16:08:47.645Z,101520.02
2023-01-12T16:11:18.004Z,101517.91
2023-01-12T16:13:44.721Z,101519.55
2023-01-12T16:16:14.923Z,101515.29
2023-01-12T16:18:41.678Z,101518.86
2023-01-12T16:21:09.016Z,101521.41
2023-01-12T16:23:35.753Z,101520.76
2023-01-12T16:26:02.499Z,101516.70
2023-01-12T16:28:29.427Z,101518.08
2023-01-12T16:30:56.908Z,101520.56
2023-01-12T16:33:23.692Z,101514.15
2023-01-12T16:35:53.685Z,101509.48
2023-01-12T16:38:20.409Z,101504.17
2023-01-12T16:40:47.122Z,101497.70
2023-01-12T16:43:13.833Z,101496.00
2023-01-12T16:45:41.636Z,101499.65
2023-01-12T16:48:08.600Z,101501.60
2023-01-12T16:50:40.019Z,101498.39
2023-01-12T16:53:08.100Z,101489.61
2023-01-12T16:55:37.177Z,101486.74
2023-01-12T16:58:05.298Z,101483.52
2023-01-12T17:00:33.626Z,101484.55
2023-01-12T17:03:02.612Z,101484.05
2023-01-12T17:05:29.945Z,101482.15
2023-01-12T17:07:56.844Z,101480.56
2023-01-12T17:10:26.593Z,101477.33
2023-01-12T17:12:58.055Z,101475.08
2023-01-12T17:15:27.168Z,101473.45
2023-01-12T17:17:55.610Z,101469.05
2023-01-12T17:20:22.455Z,101465.67
2023-01-12T17:22:49.525Z,101470.73
2023-01-12T17:25:16.408Z,101471.58
2023-01-12T17:27:43.243Z,101466.29
2023-01-12T17:30:10.929Z,101467.19
2023-01-12T17:32:37.928Z,101464.98
2023-01-12T17:35:07.908Z,101465.19
2023-01-12T17:37:35.282Z,101466.88
2023-01-12T17:40:02.477Z,101470.15
2023-01-12T17:42:48.050Z,101471.74
2023-01-12T17:45:18.241Z,101473.23
2023-01-12T17:47:45.412Z,101475.41
2023-01-12T17:50:13.533Z,101477.69
2023-01-12T17:52:43.201Z,101481.16
2023-01-12T17:55:10.177Z,101477.58
2023-01-12T17:57:37.014Z,101475.69
2023-01-12T18:00:07.450Z,101471.52
2023-01-12T18:02:41.874Z,101473.05
2023-01-12T18:05:09.561Z,101469.09
2023-01-12T18:07:40.176Z,101471.66
2023-01-12T18:10:13.334Z,101470.36
2023-01-12T18:12:40.078Z,101471.57
2023-01-12T18:15:07.360Z,101468.33
2023-01-12T18:17:34.592Z,101462.05
2023-01-12T18:20:01.328Z,101462.87
2023-01-12T18:22:28.088Z,101468.52
2023-01-12T18:24:54.852Z,101472.31
2023-01-12T18:27:21.789Z,101473.67
2023-01-12T18:29:48.549Z,101472.84
2023-01-12T18:32:15.417Z,101476.42
2023-01-12T18:34:44.750Z,101474.38
2023-01-12T18:37:13.581Z,101476.87
2023-01-12T18:39:43.992Z,101472.02
2023-01-12T18:42:29.651Z,101473.51
2023-01-12T18:44:59.485Z,101470.60
2023-01-12T18:47:45.028Z,101469.23
2023-01-12T18:50:30.729Z,101467.70
2023-01-12T18:53:16.337Z,101466.66
2023-01-12T18:55:43.081Z,101466.81
2023-01-12T18:58:10.008Z,101466.65
2023-01-12T19:00:37.161Z,101466.27
2023-01-12T19:03:05.782Z,101461.52
2023-01-12T19:05:37.104Z,101464.55
2023-01-12T19:08:23.845Z,101464.52
2023-01-12T19:10:50.594Z,101463.11
2023-01-12T19:13:36.279Z,101461.56
2023-01-12T19:16:21.790Z,101461.84
2023-01-12T19:18:48.523Z,101458.66
2023-01-12T19:21:33.970Z,101457.92
2023-01-12T19:24:19.860Z,101457.77
2023-01-12T19:27:05.446Z,101450.39
2023-01-12T19:29:32.402Z,101454.17
2023-01-12T19:31:59.099Z,101446.56
2023-01-12T19:34:25.943Z,101461.47
2023-01-12T19:36:52.968Z,101465.77
2023-01-12T19:39:27.194Z,101463.33
2023-01-12T19:42:12.690Z,101467.75
2023-01-12T19:44:39.406Z,101467.48
2023-01-12T19:47:06.150Z,101472.24
2023-01-12T19:49:32.877Z,101472.23
2023-01-12T19:51:59.991Z,101471.38
2023-01-12T19:54:27.163Z,101470.70
2023-01-12T19:56:53.876Z,101472.15
2023-01-12T19:59:20.629Z,101471.30
2023-01-12T20:01:47.573Z,101469.12
2023-01-12T20:04:14.378Z,101469.36
2023-01-12T20:06:41.168Z,101475.23
2023-01-12T20:09:07.882Z,101472.02
2023-01-12T20:11:34.661Z,101472.16
2023-01-12T20:14:01.412Z,101467.58
2023-01-12T20:16:28.271Z,101472.86
2023-01-12T20:18:56.444Z,101477.67
2023-01-12T20:21:23.163Z,101479.77
2023-01-12T20:23:49.916Z,101478.95
2023-01-12T20:26:16.674Z,101474.00
2023-01-12T20:28:43.599Z,101471.64
2023-01-12T20:31:15.685Z,101465.06
2023-01-12T20:33:42.627Z,101471.08
2023-01-12T20:36:13.370Z,101470.89
2023-01-12T20:38:41.122Z,101478.53
2023-01-12T20:41:08.520Z,101477.17
2023-01-12T20:43:35.234Z,101479.64
2023-01-12T20:46:02.329Z,101480.70
2023-01-12T20:48:29.363Z,101475.92
2023-01-12T20:50:56.148Z,101474.91
2023-01-12T20:53:26.878Z,101464.73
2023-01-12T20:55:53.635Z,101461.35
2023-01-12T20:58:20.419Z,101461.96
2023-01-12T21:00:47.294Z,101460.91
2023-01-12T21:03:14.152Z,101465.14
2023-01-12T21:05:42.295Z,101458.10
2023-01-12T21:08:09.040Z,101457.94
2023-01-12T21:10:37.027Z,101458.92
2023-01-12T21:13:03.802Z,101455.30
2023-01-12T21:15:30.570Z,101464.30
2023-01-12T21:17:57.422Z,101461.77
2023-01-12T21:20:24.149Z,101472.21
2023-01-12T21:22:50.842Z,101471.40
2023-01-12T21:25:17.679Z,101475.67
2023-01-12T21:27:44.441Z,101480.65
2023-01-12T21:30:12.500Z,101477.24
2023-01-12T21:32:39.183Z,101477.95
2023-01-12T21:35:06.376Z,101482.40
2023-01-12T21:37:33.184Z,101483.13
2023-01-12T21:39:59.925Z,101481.45
2023-01-12T21:42:47.016Z,101484.02
2023-01-12T21:45:13.879Z,101479.88
2023-01-12T21:47:40.600Z,101477.71
2023-01-12T21:50:08.194Z,101475.41
2023-01-12T21:52:34.913Z,101474.11
2023-01-12T21:55:01.606Z,101466.30
2023-01-12T21:57:28.423Z,101470.05
2023-01-12T21:59:55.217Z,101465.79
2023-01-12T22:02:22.020Z,101464.73
2023-01-12T22:04:48.724Z,101463.13
2023-01-12T22:07:15.484Z,101465.67
2023-01-12T22:09:42.285Z,101457.69
2023-01-12T22:12:09.022Z,101454.14
2023-01-12T22:14:35.736Z,101451.64
2023-01-12T22:17:02.462Z,101451.38
2023-01-12T22:19:29.133Z,101444.23
2023-01-12T22:21:55.864Z,101443.23
2023-01-12T22:24:22.681Z,101441.19
2023-01-12T22:26:49.401Z,101436.59
2023-01-12T22:29:16.177Z,101435.23
2023-01-12T22:31:42.927Z,101436.95
2023-01-12T22:34:09.767Z,101439.65
2023-01-12T22:36:42.735Z,101441.52
2023-01-12T22:39:11.659Z,101446.27
2023-01-12T22:41:39.769Z,101445.70
2023-01-12T22:44:06.516Z,101444.10
2023-01-12T22:46:33.297Z,101443.08
2023-01-12T22:48:59.992Z,101443.98
2023-01-12T22:51:27.492Z,101444.52
2023-01-12T22:53:54.503Z,101444.31
2023-01-12T22:56:21.427Z,101442.33
2023-01-12T22:58:48.866Z,101438.43
2023-01-12T23:01:15.919Z,101433.67
2023-01-12T23:03:42.721Z,101430.27
2023-01-12T23:06:13.773Z,101429.48
2023-01-12T23:08:40.723Z,101431.55
2023-01-12T23:11:09.383Z,101431.17
2023-01-12T23:13:36.140Z,101428.91
2023-01-12T23:16:05.251Z,101435.90
2023-01-12T23:18:32.845Z,101432.33
2023-01-12T23:21:20.801Z,101433.88
2023-01-12T23:23:49.231Z,101439.36
2023-01-12T23:26:19.971Z,101437.13
2023-01-12T23:28:48.387Z,101430.64
2023-01-12T23:31:16.947Z,101432.36
2023-01-12T23:33:43.807Z,101430.52
2023-01-12T23:36:15.489Z,101424.73
2023-01-12T23:38:42.787Z,101418.58
2023-01-12T23:41:10.618Z,101416.66
2023-01-12T23:43:37.675Z,101419.68
2023-01-12T23:46:04.556Z,101415.27
2023-01-12T23:48:31.329Z,101408.71
2023-01-12T23:50:59.106Z,101408.58
2023-01-12T23:53:26.483Z,101412.04
2023-01-12T23:55:53.968Z,101414.09
2023-01-12T23:58:21.352Z,101418.89
